Latest Weather Observations for Yamba

IDN60801

Issued at 1:35 am EDT Friday 24 October 2014 (issued every 30 minutes, with the page automatically refreshed every 10 minutes)

About weather observations | Map of weather stations | Latest weather observations for NSW | Other Formats
Station Details ID: 058012 Name: YAMBA PILOT STATION Lat: -29.43 Lon: 153.36 Height: 27.4 m
Data from the previous 72 hours. | See also: Recent months at Yamba
Date/Time
EDT
Temp
°C
App
Temp
°C
Dew
Point
Rel
Hum
%
Delta-T
°C
Wind Press
QNH
hPa
Press
MSL
hPa
Rain
since 9 am
mm
Dir
 
Spd
km/h
Gust
km/h
Spd
kts
Gust
kts
24/01:30am 18.6 - - - - N 11 19 6 10 1020.3 - 0.0
24/01:00am 18.7 - - - - N 11 19 6 10 1020.7 - 0.0
24/12:30am 19.2 - - - - NNW 13 20 7 11 1021.0 - 0.0
24/12:00am 20.0 - - - - N 11 20 6 11 1020.8 1020.7 0.0
 
Date/Time
EDT
Temp
°C
App
Temp
°C
Dew
Point
Rel
Hum
%
Delta-T
°C
Wind Press
QNH
hPa
Press
MSL
hPa
Rain
since 9 am
mm
Dir
 
Spd
km/h
Gust
km/h
Spd
kts
Gust
kts
23/11:30pm 20.0 - - - - N 13 26 7 14 1020.7 - 0.0
23/11:00pm 20.1 - - - - N 11 22 6 12 1020.7 - 0.0
23/10:30pm 20.1 - - - - N 11 17 6 9 1020.7 - 0.0
23/10:00pm 20.1 - - - - N 11 17 6 9 1020.4 - 0.0
23/09:30pm 20.1 - - - - N 11 19 6 10 1020.5 - 0.0
23/09:00pm 20.0 - - - - N 11 19 6 10 1020.0 1019.9 0.0
23/08:30pm 20.1 - - - - N 11 20 6 11 1019.7 - 0.0
23/08:00pm 20.2 - - - - N 11 17 6 9 1019.5 - 0.0
23/07:30pm 20.8 - - - - N 13 20 7 11 1019.2 - 0.0
23/07:00pm 21.0 - - - - N 11 24 6 13 1018.7 - 0.0
23/06:30pm 21.0 - - - - N 15 26 8 14 1018.5 - 0.0
23/06:00pm 21.3 - - - - N 15 26 8 14 1018.3 1018.1 0.0
23/05:30pm 21.5 - - - - N 13 26 7 14 1018.0 - 0.0
23/05:00pm 21.9 - - - - NNE 17 26 9 14 1017.8 - 0.0
23/04:30pm 22.5 - - - - N 17 26 9 14 1017.4 - 0.0
23/04:00pm 22.9 - - - - NNE 17 30 9 16 1017.0 - 0.0
23/03:30pm 23.5 - - - - NNE 17 28 9 15 1017.0 - 0.0
23/03:00pm 23.8 - - - - N 15 24 8 13 1017.2 1017.0 0.0
23/02:30pm 23.8 - - - - NNE 19 30 10 16 1017.4 - 0.0
23/02:00pm 24.9 - - - - NNE 15 26 8 14 1017.9 - 0.0
23/01:30pm 24.9 - - - - NNE 17 26 9 14 1018.4 - 0.0
23/01:00pm 24.4 - - - - NNE 17 28 9 15 1018.8 - 0.0
23/12:30pm 24.8 - - - - NNE 13 26 7 14 1019.3 - 0.0
23/12:00pm 25.6 - - - - N 13 19 7 10 1019.8 1019.7 0.0
23/11:30am 25.1 - - - - N 11 19 6 10 1020.2 - 0.0
23/11:00am 24.7 - - - - N 11 17 6 9 1020.9 - 0.0
23/10:30am 24.0 - - - - NW 11 15 6 8 1021.2 - 0.0
23/10:00am 23.1 - - - - NW 13 20 7 11 1021.6 - 0.0
23/09:30am 21.8 - - - - NW 15 24 8 13 1021.7 - 0.0
23/09:00am 20.9 - - - - NNW 13 19 7 10 1021.8 1021.7 0.0
23/08:30am 19.5 - - - - NNW 11 19 6 10 1021.9 - 0.0
23/08:00am 18.4 - - - - NW 13 20 7 11 1022.1 - 0.0
23/07:30am 17.2 - - - - NW 11 17 6 9 1021.9 - 0.0
23/07:00am 16.2 - - - - NW 11 19 6 10 1021.9 - 0.0
23/06:30am 15.5 - - - - NNW 7 11 4 6 1021.5 - 0.0
23/06:00am 15.6 - - - - W 7 11 4 6 1021.4 1021.3 0.0
23/05:30am 15.9 - - - - W 7 11 4 6 1021.2 - 0.0
23/05:00am 16.3 - - - - W 9 11 5 6 1021.1 - 0.0
23/04:30am 16.1 - - - - W 9 13 5 7 1021.0 - 0.0
23/04:00am 16.2 - - - - WNW 11 13 6 7 1021.1 - 0.0
23/03:30am 16.0 - - - - W 9 13 5 7 1021.4 - 0.0
23/03:00am 16.1 - - - - WSW 11 13 6 7 1021.7 1021.6 0.0
23/02:30am 16.1 - - - - WSW 9 13 5 7 1022.0 - 0.0
23/02:00am 16.4 - - - - WSW 9 13 5 7 1022.3 - 0.0
23/01:30am 16.3 - - - - W 11 11 6 6 1022.4 - 0.0
23/01:00am 16.1 - - - - WSW 11 13 6 7 1022.7 - 0.0
23/12:30am 15.9 - - - - WSW 7 9 4 5 1022.8 - 0.0
23/12:00am 16.6 - - - - W 7 9 4 5 1023.1 1023.0 0.0
 
Date/Time
EDT
Temp
°C
App
Temp
°C
Dew
Point
Rel
Hum
%
Delta-T
°C
Wind Press
QNH
hPa
Press
MSL
hPa
Rain
since 9 am
mm
Dir
 
Spd
km/h
Gust
km/h
Spd
kts
Gust
kts
22/11:30pm 17.3 - - - - W 9 11 5 6 1023.3 - 0.0
22/11:00pm 18.7 - - - - NNE 6 11 3 6 1023.5 - 0.0
22/10:30pm 18.6 - - - - NNE 7 13 4 7 1023.6 - 0.0
22/10:00pm 18.7 - - - - ENE 9 13 5 7 1023.6 - 0.0
22/09:30pm 18.8 - - - - ENE 9 15 5 8 1023.6 - 0.0
22/09:00pm 18.9 - - - - ENE 11 15 6 8 1023.6 1023.5 0.0
22/08:30pm 18.9 - - - - ENE 11 17 6 9 1023.5 - 0.0
22/08:00pm 19.0 - - - - E 11 15 6 8 1023.5 - 0.0
22/07:30pm 19.1 - - - - E 11 15 6 8 1023.4 - 0.0
22/07:00pm 19.3 - - - - E 11 15 6 8 1023.3 - 0.0
22/06:30pm 19.6 - - - - E 11 15 6 8 1023.1 - 0.0
22/06:00pm 20.2 - - - - E 11 17 6 9 1023.0 1022.9 0.0
22/05:30pm 20.6 - - - - E 11 17 6 9 1023.0 - 0.0
22/05:00pm 21.0 - - - - E 11 17 6 9 1022.9 - 0.0
22/04:30pm 21.1 - - - - E 13 20 7 11 1022.9 - 0.0
22/04:00pm 20.8 - - - - ESE 19 24 10 13 1023.2 - 0.0
22/03:30pm 21.1 - - - - E 15 22 8 12 1023.5 - 0.0
22/03:00pm 21.8 - - - - ESE 13 19 7 10 1024.0 1023.9 0.0
22/02:30pm 22.2 - - - - ESE 15 22 8 12 1024.3 - 0.0
22/02:00pm 21.5 - - - - SE 19 24 10 13 1024.6 - 0.0
22/01:30pm 21.2 - - - - SE 20 26 11 14 1025.1 - 0.0
22/01:00pm 21.4 - - - - SE 17 24 9 13 1025.6 - 0.0
22/12:30pm 20.3 - - - - ESE 17 24 9 13 1026.0 - 0.0
22/12:00pm 21.9 - - - - SE 22 28 12 15 1026.3 1026.2 0.0
22/11:30am 20.4 - - - - SSE 22 33 12 18 1026.5 - 0.0
22/11:00am 20.9 - - - - SSE 19 26 10 14 1026.6 - 0.0
22/10:30am 20.6 - - - - SSE 19 28 10 15 1026.6 - 0.0
22/10:00am 20.3 - - - - SSE 17 22 9 12 1026.8 - 0.0
22/09:30am 18.9 - - - - S 15 22 8 12 1026.9 - 0.0
22/09:00am 17.4 - - - - S 11 15 6 8 1026.8 1026.7 1.6
22/08:30am 17.0 - - - - SSW 11 17 6 9 1026.5 - 1.6
22/08:00am 16.5 - - - - SSW 9 17 5 9 1026.3 - 1.6
22/07:30am 15.6 - - - - SSW 9 17 5 9 1026.3 - 1.6
22/07:00am 14.8 - - - - SSW 9 13 5 7 1026.3 - 1.6
22/06:30am 14.5 - - - - WSW 7 11 4 6 1026.1 - 1.6
22/06:00am 14.6 - - - - WSW 7 11 4 6 1026.1 1025.9 1.6
22/05:30am 14.8 - - - - SW 9 15 5 8 1026.0 - 1.6
22/05:00am 15.0 - - - - SSW 11 15 6 8 1025.9 - 1.6
22/04:30am 15.1 - - - - S 13 17 7 9 1026.2 - 1.4
22/04:00am 15.2 - - - - SSW 7 11 4 6 1026.3 - 1.4
22/03:30am 15.1 - - - - SSW 9 15 5 8 1026.3 - 1.4
22/03:00am 15.1 - - - - S 15 24 8 13 1026.8 1026.7 1.4
22/02:30am 15.2 - - - - SSW 9 15 5 8 1026.9 - 1.4
22/02:00am 15.3 - - - - SW 7 11 4 6 1027.2 - 1.4
22/01:30am 15.3 - - - - SW 9 13 5 7 1027.6 - 1.4
22/01:00am 15.6 - - - - SSW 9 13 5 7 1028.1 - 1.4
22/12:30am 15.6 - - - - SW 6 11 3 6 1028.4 - 1.4
22/12:00am 16.0 - - - - S 11 20 6 11 1028.8 1028.8 1.2
 
Date/Time
EDT
Temp
°C
App
Temp
°C
Dew
Point
Rel
Hum
%
Delta-T
°C
Wind Press
QNH
hPa
Press
MSL
hPa
Rain
since 9 am
mm
Dir
 
Spd
km/h
Gust
km/h
Spd
kts
Gust
kts
21/11:30pm 16.7 - - - - SSE 17 24 9 13 1029.0 - 0.2
21/11:00pm 17.4 - - - - SSE 17 28 9 15 1029.0 - 0.2
21/10:30pm 18.0 - - - - SSE 20 28 11 15 1029.2 - 0.2
21/10:00pm 18.2 - - - - SSE 24 37 13 20 1029.2 - 0.2
21/09:30pm 18.0 - - - - SE 24 32 13 17 1028.9 - 0.2
21/09:00pm 18.1 - - - - SE 33 43 18 23 1028.9 1028.8 0.2
21/08:30pm 18.4 - - - - SE 30 35 16 19 1028.6 - 0.2
21/08:00pm 18.8 - - - - SSE 26 37 14 20 1028.4 - 0.2
21/07:30pm 18.4 - - - - SSE 22 32 12 17 1028.2 - 0.2
21/07:00pm 18.0 - - - - SSE 20 35 11 19 1027.9 - 0.2
21/06:30pm 18.5 - - - - SE 30 35 16 19 1027.9 - 0.2
21/06:00pm 19.2 - - - - SE 33 46 18 25 1027.7 1027.6 0.2
21/05:30pm 19.5 - - - - SSE 35 50 19 27 1027.3 - 0.2
21/05:16pm 19.6 - - - - SSE 28 46 15 25 1027.2 - 0.2
21/05:15pm 19.6 - - - - SSE 28 46 15 25 1027.2 - 0.2
21/05:00pm 20.1 - - - - SSE 26 41 14 22 1027.3 - 0.2
21/04:30pm 20.5 - - - - SSE 24 37 13 20 1027.2 - 0.2
21/04:00pm 20.6 - - - - S 24 39 13 21 1027.3 - 0.2
21/03:30pm 20.4 - - - - SSE 26 43 14 23 1027.6 - 0.2
21/03:12pm 19.5 - - - - SSE 28 50 15 27 1027.8 - 0.2
21/03:11pm 19.5 - - - - SSE 28 50 15 27 1027.8 - 0.2
21/03:00pm 20.4 - - - - SSE 26 39 14 21 1027.9 1027.9 0.2
21/02:30pm 19.1 - - - - S 19 30 10 16 1028.4 - 0.2
21/02:03pm 20.2 - - - - SSE 30 52 16 28 1028.5 - 0.2
21/02:02pm 20.2 - - - - SSE 30 52 16 28 1028.5 - 0.2
21/02:00pm 21.0 - - - - SSE 28 39 15 21 1028.4 - 0.2
21/01:30pm 20.3 - - - - SSE 26 39 14 21 1028.7 - 0.2
21/01:00pm 20.4 - - - - SSE 28 41 15 22 1028.8 - 0.2
21/12:30pm 20.4 - - - - S 24 39 13 21 1029.1 - 0.2
21/12:00pm 19.3 - - - - SSE 28 44 15 24 1029.3 1029.2 0.2
21/11:30am 19.8 - - - - SSE 22 37 12 20 1029.3 - 0.2
21/11:00am 18.5 - - - - S 22 37 12 20 1029.5 - 0.2
21/10:30am 18.0 - - - - S 20 32 11 17 1029.5 - 0.2
21/10:00am 17.7 - - - - S 20 35 11 19 1029.6 - 0.0
21/09:30am 18.4 - - - - S 22 33 12 18 1029.3 - 0.0
21/09:00am 18.3 - - - - S 22 35 12 19 1029.0 1029.0 0.6
21/08:50am - - - - - - - - - - - - -
21/08:30am 18.3 - - - - S 20 33 11 18 1028.8 - 0.6
21/08:00am 18.2 - - - - S 20 37 11 20 1028.4 1028.9 0.6
21/07:30am 18.7 - - - - S 20 33 11 18 1028.0 - 0.6
21/07:00am 18.0 - - - - S 19 28 10 15 1027.8 - 0.6
21/06:30am 17.5 - - - - S 17 22 9 12 1027.4 - 0.6
21/06:00am 17.4 - - - - S 17 28 9 15 1027.1 1027.0 0.6
21/05:30am 17.4 - - - - S 19 30 10 16 1026.9 - 0.6
21/05:00am 17.6 - - - - S 15 20 8 11 1026.7 - 0.6
21/04:30am 18.8 - - - - SSE 24 41 13 22 1026.6 - 0.6
21/04:00am 18.0 - - - - S 15 20 8 11 1026.6 - 0.6
21/03:30am 17.8 - - - - S 19 26 10 14 1026.4 - 0.6
21/03:00am 17.8 - - - - S 19 32 10 17 1026.5 1026.4 0.6
21/02:30am 17.9 - - - - S 22 32 12 17 1026.9 - 0.6
21/02:00am 18.1 - - - - S 22 32 12 17 1026.9 - 0.6

Other Formats:

Comma delimited format used in spreadsheet applications
http://www.bom.gov.au/fwo/IDN60801/IDN60801.94589.axf

JavaScript Object Notation format (JSON) in row-major order
http://www.bom.gov.au/fwo/IDN60801/IDN60801.94589.json